Time;durP1;ratioP1;P1;durP2;ratioP2;P2;SDS_P1;SDS_P2;PMS_P1;PMS_P2;Temp;Humidity;BMP_temperature;BMP_pressure;BME280_temperature;BME280_humidity;BME280_pressure;Samples;Min_cycle;Max_cycle;Signal;HPM_P1;HPM_P2
2021/01/14 00:00:56;;;;;;;7.95;0.63;;;3.30;96.70;;;;;;4769857;29;20055;-85
2021/01/14 00:03:22;;;;;;;8.50;0.70;;;3.30;96.40;;;;;;4782509;29;20054;-84
2021/01/14 00:05:49;;;;;;;4.10;0.67;;;3.30;96.50;;;;;;4782414;29;20046;-83
2021/01/14 00:08:16;;;;;;;7.43;0.50;;;3.20;96.40;;;;;;4782817;29;20043;-84
2021/01/14 00:10:42;;;;;;;2.30;0.30;;;3.20;96.40;;;;;;4783984;29;20059;-82
2021/01/14 00:13:09;;;;;;;8.67;1.17;;;3.20;96.40;;;;;;4767424;29;20106;-83
2021/01/14 00:15:37;;;;;;;4.20;0.50;;;3.20;96.40;;;;;;4783511;29;20061;-81
2021/01/14 00:18:04;;;;;;;4.90;0.50;;;3.10;96.40;;;;;;4785246;29;20117;-80
2021/01/14 00:20:33;;;;;;;4.07;0.60;;;3.10;96.30;;;;;;4795731;29;20443;-88
2021/01/14 00:23:02;;;;;;;9.37;0.50;;;3.10;96.40;;;;;;4796612;29;21006;-87
2021/01/14 00:25:29;;;;;;;7.70;0.57;;;3.10;96.40;;;;;;4781543;29;20082;-88
2021/01/14 00:27:56;;;;;;;6.53;0.67;;;3.10;96.40;;;;;;4783278;29;20062;-80
2021/01/14 00:30:30;;;;;;;5.23;0.40;;;3.10;96.30;;;;;;4765410;29;20055;-80
2021/01/14 00:33:03;;;;;;;6.27;0.50;;;3.00;96.30;;;;;;4779369;29;20046;-80
2021/01/14 00:35:31;;;;;;;5.77;0.63;;;3.00;96.30;;;;;;4767468;29;20483;-80
2021/01/14 00:37:57;;;;;;;5.87;0.67;;;3.00;96.30;;;;;;4792696;29;20055;-81
2021/01/14 00:40:31;;;;;;;3.63;0.60;;;3.00;96.30;;;;;;4768966;29;20058;-82
2021/01/14 00:43:01;;;;;;;7.47;0.70;;;3.00;96.30;;;;;;4780858;29;20043;-81
2021/01/14 00:45:29;;;;;;;2.63;0.40;;;3.00;96.30;;;;;;4795831;29;20035;-81
2021/01/14 00:47:56;;;;;;;4.63;0.50;;;3.00;96.30;;;;;;4780675;29;20046;-81
2021/01/14 00:50:23;;;;;;;6.67;0.60;;;3.00;96.30;;;;;;4763615;29;20047;-79
2021/01/14 00:52:50;;;;;;;5.23;0.47;;;3.00;96.30;;;;;;4781853;29;20054;-79
2021/01/14 00:55:20;;;;;;;8.20;0.60;;;2.90;96.10;;;;;;4779727;29;20051;-79
2021/01/14 00:57:49;;;;;;;;;;;2.90;96.10;;;;;;4784264;29;20058;-80
2021/01/14 01:00:21;;;;;;;2.57;0.30;;;2.90;96.10;;;;;;4783732;29;19943;-79
2021/01/14 01:02:52;;;;;;;3.80;0.37;;;2.80;96.10;;;;;;4785403;29;20071;-80
2021/01/14 01:05:20;;;;;;;5.07;0.40;;;2.80;96.20;;;;;;4770417;29;20047;-82
2021/01/14 01:07:58;;;;;;;4.77;1.03;;;2.80;96.20;;;;;;4797927;29;20039;-84
2021/01/14 01:10:26;;;;;;;3.73;0.50;;;2.80;96.20;;;;;;4787567;29;20356;-86
2021/01/14 01:12:54;;;;;;;2.70;0.30;;;2.80;96.40;;;;;;4771702;29;20039;-86
2021/01/14 01:15:21;;;;;;;5.80;0.70;;;2.80;96.20;;;;;;4772057;29;20047;-86
2021/01/14 01:17:48;;;;;;;8.17;1.17;;;2.70;96.10;;;;;;4800208;29;20043;-87
2021/01/14 01:20:15;;;;;;;3.37;0.30;;;2.60;96.10;;;;;;4786469;29;20046;-86
2021/01/14 01:22:42;;;;;;;6.93;0.40;;;2.60;96.10;;;;;;4786484;29;20042;-85
2021/01/14 01:25:08;;;;;;;1.87;0.37;;;2.50;96.10;;;;;;4774854;29;20059;-80
2021/01/14 01:27:36;;;;;;;3.47;0.40;;;2.50;96.10;;;;;;4785152;29;20483;-86
2021/01/14 01:30:06;;;;;;;3.87;0.33;;;2.40;96.10;;;;;;4785191;29;20054;-86
2021/01/14 01:32:33;;;;;;;3.53;0.33;;;2.40;96.10;;;;;;4776112;29;20070;-86
2021/01/14 01:34:59;;;;;;;3.63;0.40;;;2.40;96.40;;;;;;4765872;29;20058;-86
2021/01/14 01:37:27;;;;;;;6.67;0.70;;;2.30;96.20;;;;;;4785634;29;20521;-86
2021/01/14 01:39:54;;;;;;;7.80;0.37;;;2.30;96.20;;;;;;4786488;29;20047;-86
2021/01/14 01:42:20;;;;;;;7.90;0.67;;;2.30;96.20;;;;;;4784548;29;20046;-86
2021/01/14 01:44:47;;;;;;;4.43;0.53;;;2.30;96.10;;;;;;4774299;29;20046;-86
2021/01/14 01:47:13;;;;;;;5.93;0.73;;;2.30;96.10;;;;;;4786187;29;20055;-86
2021/01/14 01:49:41;;;;;;;4.37;0.37;;;2.30;96.10;;;;;;4781855;29;20590;-80
2021/01/14 01:52:08;;;;;;;6.30;0.50;;;2.30;96.00;;;;;;4799810;29;20059;-80
2021/01/14 01:54:35;;;;;;;6.67;0.40;;;2.20;96.00;;;;;;4800697;29;20050;-80
2021/01/14 01:57:04;;;;;;;3.63;0.60;;;2.30;95.90;;;;;;4771131;29;20517;-80
2021/01/14 01:59:31;;;;;;;4.07;0.40;;;2.30;95.90;;;;;;4784556;29;20051;-80
2021/01/14 02:02:18;;;;;;;7.33;0.50;;;2.30;95.80;;;;;;4784839;29;20050;-80
2021/01/14 02:04:45;;;;;;;5.93;0.40;;;2.30;95.70;;;;;;4784707;29;20059;-80
2021/01/14 02:07:24;;;;;;;3.30;0.30;;;2.30;95.60;;;;;;4800531;29;20038;-86
2021/01/14 02:09:54;;;;;;;4.10;0.50;;;2.30;95.60;;;;;;4802061;29;20050;-86
2021/01/14 02:12:27;;;;;;;7.20;1.23;;;2.20;95.50;;;;;;4785268;29;20034;-80
2021/01/14 02:14:57;;;;;;;10.27;0.87;;;2.20;95.50;;;;;;4786199;29;20043;-80
2021/01/14 02:17:26;;;;;;;4.07;0.50;;;2.20;95.50;;;;;;4800555;29;20058;-80
2021/01/14 02:19:55;;;;;;;3.87;0.30;;;2.20;95.50;;;;;;4799297;29;20050;-80
2021/01/14 02:22:38;;;;;;;10.07;0.80;;;2.10;95.40;;;;;;4784946;29;20069;-80
2021/01/14 02:25:14;;;;;;;7.40;0.40;;;2.10;95.40;;;;;;4784944;29;20042;-80
2021/01/14 02:27:43;;;;;;;4.87;0.60;;;2.10;95.40;;;;;;4775645;29;20036;-86
2021/01/14 02:30:10;;;;;;;3.43;0.30;;;2.20;95.40;;;;;;4784430;29;20062;-86
2021/01/14 02:32:37;;;;;;;4.17;0.40;;;2.10;95.40;;;;;;4785980;29;20785;-79
2021/01/14 02:35:04;;;;;;;7.70;0.43;;;2.20;95.40;;;;;;4785543;29;20058;-80
2021/01/14 02:37:31;;;;;;;4.60;0.50;;;2.20;95.40;;;;;;4778536;29;20058;-80
2021/01/14 02:39:57;;;;;;;7.80;0.40;;;2.20;95.30;;;;;;4769149;29;20414;-80
2021/01/14 02:42:24;;;;;;;8.47;0.90;;;2.20;95.30;;;;;;4761144;29;20053;-80
2021/01/14 02:44:53;;;;;;;5.97;0.30;;;2.20;95.30;;;;;;4785343;29;20082;-86
2021/01/14 02:47:21;;;;;;;10.20;0.50;;;2.20;95.20;;;;;;4757429;29;20037;-86
2021/01/14 02:49:57;;;;;;;7.60;0.77;;;2.20;95.20;;;;;;4791249;29;20542;-86
2021/01/14 02:52:27;;;;;;;5.20;0.80;;;2.20;95.10;;;;;;4784244;29;20054;-86
2021/01/14 02:54:56;;;;;;;6.30;0.93;;;2.20;95.00;;;;;;4786233;29;20054;-86
2021/01/14 02:57:25;;;;;;;13.73;0.60;;;2.30;95.00;;;;;;4784677;29;21179;-86
2021/01/14 02:59:55;;;;;;;4.82;0.50;;;2.20;94.90;;;;;;4799509;29;20050;-86
2021/01/14 03:02:21;;;;;;;4.23;0.50;;;2.20;94.90;;;;;;4772257;29;20043;-86
2021/01/14 03:04:48;;;;;;;4.43;0.80;;;2.20;94.90;;;;;;4762384;29;20051;-85
2021/01/14 03:07:15;;;;;;;7.60;0.47;;;2.10;94.90;;;;;;4798987;29;20039;-86
2021/01/14 03:09:42;;;;;;;8.17;0.43;;;2.10;95.00;;;;;;4780168;29;20058;-86
2021/01/14 03:12:08;;;;;;;8.83;0.63;;;2.10;95.10;;;;;;4770287;29;20046;-86
2021/01/14 03:14:35;;;;;;;3.67;0.40;;;2.10;95.10;;;;;;4769907;29;20480;-86
2021/01/14 03:17:01;;;;;;;5.17;0.70;;;2.00;95.00;;;;;;4769052;29;20066;-86
2021/01/14 03:19:28;;;;;;;2.03;0.40;;;2.00;95.10;;;;;;4769064;29;20058;-86
2021/01/14 03:22:00;;;;;;;6.50;0.50;;;2.00;95.10;;;;;;4783541;29;20039;-80
2021/01/14 03:24:27;;;;;;;5.50;0.80;;;1.90;95.10;;;;;;4815896;29;20057;-79
2021/01/14 03:26:54;;;;;;;3.87;0.50;;;1.90;95.10;;;;;;4775702;29;20047;-80
2021/01/14 03:29:21;;;;;;;5.90;0.50;;;1.80;95.10;;;;;;4761753;29;20043;-80
2021/01/14 03:31:47;;;;;;;6.60;0.60;;;1.80;95.20;;;;;;4782464;29;20063;-80
2021/01/14 03:34:14;;;;;;;5.63;0.50;;;1.80;95.30;;;;;;4780640;29;20055;-80
2021/01/14 03:36:56;;;;;;;3.37;0.43;;;1.70;95.30;;;;;;4767669;29;20547;-80
2021/01/14 03:39:24;;;;;;;1.50;0.20;;;1.70;95.30;;;;;;4769372;29;20061;-80
2021/01/14 03:41:52;;;;;;;4.30;0.40;;;1.70;95.30;;;;;;4761525;29;20057;-80
2021/01/14 03:44:19;;;;;;;3.17;0.60;;;1.60;95.30;;;;;;4784364;29;20054;-80
2021/01/14 03:46:46;;;;;;;8.17;0.60;;;1.60;95.30;;;;;;4776781;29;20039;-80
2021/01/14 03:49:14;;;;;;;2.10;0.27;;;1.60;95.30;;;;;;4769049;29;20039;-80
2021/01/14 03:51:44;;;;;;;3.20;0.33;;;1.60;95.30;;;;;;4778391;29;20050;-79
2021/01/14 03:54:11;;;;;;;5.97;0.40;;;1.60;95.30;;;;;;4767924;29;20050;-80
2021/01/14 03:56:39;;;;;;;7.00;0.60;;;1.60;95.40;;;;;;4762972;29;20403;-80
2021/01/14 03:59:07;;;;;;;4.10;0.40;;;1.60;95.30;;;;;;4761584;29;20070;-80
2021/01/14 04:01:34;;;;;;;4.70;0.40;;;1.60;95.30;;;;;;4783349;29;20034;-79
2021/01/14 04:04:01;;;;;;;2.30;0.40;;;1.60;95.40;;;;;;4768834;29;20034;-80
2021/01/14 04:06:37;;;;;;;3.97;0.40;;;1.60;95.40;;;;;;4767662;29;20048;-80
2021/01/14 04:09:07;;;;;;;7.67;0.60;;;1.60;95.40;;;;;;4780979;29;20034;-80
2021/01/14 04:11:34;;;;;;;8.90;0.87;;;1.60;95.40;;;;;;4782695;29;20062;-80
2021/01/14 04:14:00;;;;;;;4.47;0.70;;;1.60;95.40;;;;;;4766466;29;21319;-80
2021/01/14 04:16:27;;;;;;;3.10;0.50;;;1.60;95.70;;;;;;4783445;29;20413;-80
2021/01/14 04:18:53;;;;;;;8.43;0.50;;;1.60;95.30;;;;;;4759566;29;20051;-80
2021/01/14 04:21:20;;;;;;;4.33;0.60;;;1.60;95.30;;;;;;4783578;29;20054;-86
2021/01/14 04:23:46;;;;;;;2.90;0.40;;;1.60;95.40;;;;;;4769432;29;20054;-86
2021/01/14 04:26:16;;;;;;;7.57;0.60;;;1.60;95.30;;;;;;4782593;29;20051;-86
2021/01/14 04:28:42;;;;;;;4.53;0.50;;;1.60;95.30;;;;;;4783904;29;20051;-86
2021/01/14 04:31:12;;;;;;;5.73;0.83;;;1.60;95.30;;;;;;4782932;29;20055;-86
2021/01/14 04:33:39;;;;;;;4.53;0.40;;;1.60;95.30;;;;;;4769725;29;20059;-86
2021/01/14 04:36:06;;;;;;;2.47;0.40;;;1.60;95.40;;;;;;4770384;29;20047;-86
2021/01/14 04:38:32;;;;;;;6.10;0.50;;;1.60;95.40;;;;;;4772505;29;20035;-86
2021/01/14 04:41:04;;;;;;;5.37;0.40;;;1.50;95.30;;;;;;4778859;29;21417;-86
2021/01/14 04:43:32;;;;;;;12.57;0.83;;;1.50;95.40;;;;;;4768934;29;20406;-86
2021/01/14 04:46:04;;;;;;;6.33;0.63;;;1.40;95.40;;;;;;4799065;29;20054;-86
2021/01/14 04:48:36;;;;;;;3.22;0.40;;;1.40;95.40;;;;;;4799769;29;20039;-86
2021/01/14 04:51:13;;;;;;;4.32;0.50;;;1.30;95.40;;;;;;4784852;29;20054;-86
2021/01/14 04:53:44;;;;;;;3.27;0.40;;;1.30;95.50;;;;;;4787621;29;20055;-86
2021/01/14 04:56:13;;;;;;;3.77;0.40;;;1.20;95.50;;;;;;4782163;29;20062;-79
2021/01/14 04:58:42;;;;;;;5.57;0.40;;;1.20;95.60;;;;;;4787548;29;20597;-80
2021/01/14 05:01:23;;;;;;;2.27;0.23;;;1.20;95.60;;;;;;4783885;29;20046;-80
2021/01/14 05:03:51;;;;;;;2.20;0.30;;;1.20;95.70;;;;;;4782332;29;20146;-79
2021/01/14 05:06:20;;;;;;;6.20;0.47;;;1.20;95.70;;;;;;4797281;29;20054;-80
2021/01/14 05:08:51;;;;;;;5.13;0.40;;;1.30;95.70;;;;;;4768343;29;20043;-80
2021/01/14 05:11:18;;;;;;;3.07;0.30;;;1.30;95.70;;;;;;4784644;29;20055;-80
2021/01/14 05:13:46;;;;;;;4.87;0.40;;;1.30;95.70;;;;;;4759900;29;20043;-80
2021/01/14 05:16:13;;;;;;;3.60;0.50;;;1.40;95.70;;;;;;4781350;29;20054;-80
2021/01/14 05:18:41;;;;;;;7.53;0.73;;;1.40;95.60;;;;;;4772875;29;20031;-80
2021/01/14 05:21:07;;;;;;;2.63;0.30;;;1.40;95.70;;;;;;4761721;29;20047;-86
2021/01/14 05:23:34;;;;;;;3.00;0.30;;;1.40;95.60;;;;;;4773492;29;20039;-85
2021/01/14 05:26:01;;;;;;;4.00;0.37;;;1.40;95.60;;;;;;4765690;29;20039;-85
2021/01/14 05:28:29;;;;;;;2.80;0.40;;;1.50;95.60;;;;;;4768666;29;20066;-85
2021/01/14 05:31:16;;;;;;;2.63;0.30;;;1.40;95.60;;;;;;4776465;29;20051;-85
2021/01/14 05:33:56;;;;;;;3.77;0.30;;;1.50;95.60;;;;;;4772663;29;20134;-86
2021/01/14 05:36:23;;;;;;;2.00;0.30;;;1.50;95.60;;;;;;4802684;29;20070;-85
2021/01/14 05:38:51;;;;;;;2.97;0.57;;;1.50;95.60;;;;;;4771618;29;20078;-84
2021/01/14 05:41:27;;;;;;;3.63;0.50;;;1.50;95.50;;;;;;4770545;29;20061;-83
2021/01/14 05:43:55;;;;;;;3.13;0.30;;;1.50;95.50;;;;;;4785535;29;20046;-85
2021/01/14 05:46:30;;;;;;;25.33;11.43;;;1.50;95.60;;;;;;4758822;29;20047;-86
2021/01/14 05:48:59;;;;;;;45.13;24.47;;;1.50;95.60;;;;;;4795909;29;20050;-90
2021/01/14 05:51:28;;;;;;;12.93;4.80;;;1.50;95.60;;;;;;4786017;29;20053;-86
2021/01/14 05:54:00;;;;;;;8.17;2.63;;;1.50;95.50;;;;;;4799455;29;20051;-86
2021/01/14 05:56:36;;;;;;;7.67;1.93;;;1.50;95.50;;;;;;4789698;29;20890;-85
2021/01/14 05:59:08;;;;;;;2.70;0.60;;;1.60;95.50;;;;;;4785616;29;20058;-79
2021/01/14 06:01:35;;;;;;;4.10;0.73;;;1.60;95.50;;;;;;4784933;29;20050;-80
2021/01/14 06:04:23;;;;;;;4.80;0.97;;;1.60;95.50;;;;;;4783317;29;20054;-80
2021/01/14 06:06:52;;;;;;;3.90;0.50;;;1.60;95.50;;;;;;4798333;29;20047;-80
2021/01/14 06:09:21;;;;;;;4.03;0.40;;;1.70;95.50;;;;;;4799704;29;20050;-79
2021/01/14 06:12:05;;;;;;;2.93;0.40;;;1.70;95.50;;;;;;4799509;29;20097;-79
2021/01/14 06:14:32;;;;;;;3.30;0.30;;;1.70;95.40;;;;;;4770894;29;20047;-79
2021/01/14 06:17:00;;;;;;;6.23;0.40;;;1.70;95.40;;;;;;4777162;29;20074;-79
2021/01/14 06:19:28;;;;;;;4.53;0.40;;;1.70;95.40;;;;;;4773420;29;20042;-79
2021/01/14 06:21:55;;;;;;;3.43;0.67;;;1.70;95.40;;;;;;4770859;29;20050;-79
2021/01/14 06:24:24;;;;;;;1.30;0.30;;;1.70;95.60;;;;;;4766373;29;20918;-80
2021/01/14 06:26:53;;;;;;;5.30;0.50;;;1.80;95.40;;;;;;4768954;29;20399;-80
2021/01/14 06:29:24;;;;;;;6.60;0.50;;;1.70;95.40;;;;;;4799844;29;20058;-79
2021/01/14 06:32:04;;;;;;;5.27;0.50;;;1.70;95.40;;;;;;4799517;29;20055;-79
2021/01/14 06:34:32;;;;;;;4.97;0.30;;;1.70;95.40;;;;;;4814777;29;20050;-80
2021/01/14 06:37:08;;;;;;;11.23;0.33;;;1.70;95.40;;;;;;4771697;29;20059;-79
2021/01/14 06:39:46;;;;;;;3.40;0.40;;;1.70;95.40;;;;;;4800091;29;20042;-79
2021/01/14 06:42:30;;;;;;;2.83;0.40;;;1.70;95.40;;;;;;4799326;29;20050;-79
2021/01/14 06:44:57;;;;;;;6.20;0.73;;;1.60;95.30;;;;;;4796998;29;20061;-79
2021/01/14 06:47:31;;;;;;;4.40;0.60;;;1.70;95.40;;;;;;4798688;29;20052;-79
2021/01/14 06:53:21;;;;;;;3.67;0.40;;;1.60;95.40;;;;;;4799049;29;20042;-79
2021/01/14 06:55:48;;;;;;;3.63;0.50;;;1.60;95.40;;;;;;4796776;29;20057;-80
2021/01/14 06:58:15;;;;;;;3.33;0.40;;;1.60;95.40;;;;;;4762801;29;20047;-79
2021/01/14 07:00:46;;;;;;;7.23;0.90;;;1.60;95.60;;;;;;4768054;29;20042;-79
2021/01/14 07:03:13;;;;;;;4.03;0.50;;;1.60;95.30;;;;;;4780152;29;20063;-79
2021/01/14 07:05:51;;;;;;;4.37;0.53;;;1.60;95.30;;;;;;4782492;29;20050;-79
2021/01/14 07:08:27;;;;;;;6.70;0.57;;;1.60;95.20;;;;;;4797148;29;20388;-80
2021/01/14 07:11:14;;;;;;;6.03;1.00;;;1.60;95.20;;;;;;4797242;29;20054;-80
2021/01/14 07:13:47;;;;;;;5.03;0.43;;;1.60;95.20;;;;;;4798430;29;20050;-79
2021/01/14 07:16:21;;;;;;;6.03;0.40;;;1.60;95.20;;;;;;4771593;29;20039;-79
2021/01/14 07:18:50;;;;;;;2.43;0.30;;;1.60;95.20;;;;;;4788491;29;20051;-79
2021/01/14 07:21:46;;;;;;;4.93;0.30;;;1.60;95.20;;;;;;4797537;29;20046;-80
2021/01/14 07:24:28;;;;;;;4.80;0.40;;;1.60;95.20;;;;;;4812397;29;20050;-80
2021/01/14 07:27:02;;;;;;;5.20;0.40;;;1.60;95.20;;;;;;4796736;29;20050;-79
2021/01/14 07:29:33;;;;;;;5.10;0.83;;;1.60;95.20;;;;;;4768782;29;20058;-85
2021/01/14 07:32:00;;;;;;;5.27;0.53;;;1.60;95.20;;;;;;4760530;29;20051;-85
2021/01/14 07:35:00;;;;;;;5.77;0.50;;;1.60;95.20;;;;;;4768939;29;20042;-85
2021/01/14 07:37:53;;;;;;;4.33;0.70;;;1.60;95.20;;;;;;4760872;29;20407;-80
2021/01/14 07:40:30;;;;;;;9.25;0.60;;;1.60;95.10;;;;;;4767841;29;20038;-80
2021/01/14 07:43:14;;;;;;;3.83;0.63;;;1.60;95.10;;;;;;4770079;29;20054;-90
2021/01/14 07:45:41;;;;;;;7.23;0.70;;;1.60;95.10;;;;;;4785120;29;20061;-85
2021/01/14 07:48:23;;;;;;;7.93;0.90;;;1.60;95.00;;;;;;4797322;29;20510;-85
2021/01/14 07:50:55;;;;;;;4.47;0.70;;;1.50;94.90;;;;;;4795966;29;20885;-84
2021/01/14 07:53:23;;;;;;;7.57;0.98;;;1.50;94.90;;;;;;4767440;29;20043;-84
2021/01/14 07:55:50;;;;;;;4.93;0.90;;;1.50;94.90;;;;;;4781935;29;20055;-84
2021/01/14 07:58:23;;;;;;;5.50;0.57;;;1.50;94.90;;;;;;4761446;29;20055;-86
2021/01/14 08:01:08;;;;;;;4.10;0.80;;;1.50;94.90;;;;;;4768973;29;20051;-84
2021/01/14 08:03:38;;;;;;;5.67;0.93;;;1.50;94.90;;;;;;4782959;29;20399;-83
2021/01/14 08:06:29;;;;;;;8.10;0.70;;;1.50;94.90;;;;;;4788846;29;20051;-84
2021/01/14 08:09:09;;;;;;;2.23;0.40;;;1.50;94.90;;;;;;4783626;29;20491;-84
2021/01/14 08:11:43;;;;;;;5.70;0.70;;;1.50;94.90;;;;;;4798914;29;20049;-84
2021/01/14 08:14:09;;;;;;;3.53;0.40;;;1.60;94.90;;;;;;4775988;29;20043;-84
2021/01/14 08:17:09;;;;;;;5.27;0.80;;;1.60;94.90;;;;;;4767282;29;20058;-84
2021/01/14 08:19:36;;;;;;;2.53;0.60;;;1.60;94.90;;;;;;4772796;29;20567;-84
2021/01/14 08:22:09;;;;;;;3.97;0.63;;;1.60;94.90;;;;;;4773249;29;20507;-84
2021/01/14 08:24:44;;;;;;;3.00;0.60;;;1.70;95.00;;;;;;4780734;29;20042;-81
2021/01/14 08:27:23;;;;;;;8.20;1.17;;;1.70;94.90;;;;;;4779292;29;20050;-81
2021/01/14 08:29:58;;;;;;;6.30;0.60;;;1.70;95.00;;;;;;4797212;29;20418;-81
2021/01/14 08:32:50;;;;;;;4.57;0.40;;;1.70;94.80;;;;;;4783665;29;20046;-80
2021/01/14 08:35:16;;;;;;;7.67;1.00;;;1.70;94.80;;;;;;4783245;29;20038;-81
2021/01/14 08:38:02;;;;;;;7.20;0.60;;;1.70;94.80;;;;;;4783108;29;20062;-81
2021/01/14 08:40:35;;;;;;;11.30;1.37;;;1.70;94.70;;;;;;4796573;29;20379;-81
2021/01/14 08:43:05;;;;;;;6.18;0.93;;;1.70;94.50;;;;;;4779968;29;20047;-81
2021/01/14 08:45:36;;;;;;;10.83;0.80;;;1.80;94.40;;;;;;4767343;29;20138;-80
2021/01/14 08:48:14;;;;;;;7.37;0.63;;;1.80;94.20;;;;;;4796793;29;20047;-80
2021/01/14 08:50:54;;;;;;;11.77;1.60;;;1.80;94.10;;;;;;4795493;29;20066;-80
2021/01/14 08:53:21;;;;;;;4.90;0.87;;;1.80;93.90;;;;;;4782805;29;20053;-79
2021/01/14 08:56:07;;;;;;;7.13;1.10;;;1.80;93.80;;;;;;4771891;29;20062;-86
2021/01/14 08:58:44;;;;;;;8.13;1.00;;;1.80;93.80;;;;;;4781641;29;20046;-81
2021/01/14 09:01:21;;;;;;;7.53;1.00;;;1.90;93.60;;;;;;4771429;29;20066;-82
2021/01/14 09:03:49;;;;;;;7.77;1.20;;;1.90;93.50;;;;;;4787366;29;20058;-81
2021/01/14 09:06:28;;;;;;;7.80;0.80;;;1.90;93.40;;;;;;4797697;29;20061;-81
2021/01/14 09:08:57;;;;;;;4.93;0.80;;;1.90;93.20;;;;;;4782145;29;20031;-81
2021/01/14 09:11:25;;;;;;;4.63;0.63;;;1.90;93.20;;;;;;4781900;29;20049;-81
2021/01/14 09:14:09;;;;;;;4.03;0.80;;;2.00;93.30;;;;;;4782532;29;20038;-80
2021/01/14 09:16:37;;;;;;;;;;;2.00;93.20;;;;;;4793729;29;20054;-80
2021/01/14 09:19:15;;;;;;;5.20;0.50;;;2.00;93.20;;;;;;4797370;29;19928;-81
2021/01/14 09:21:42;;;;;;;6.40;0.77;;;2.00;93.20;;;;;;4784624;29;20046;-80
2021/01/14 09:24:10;;;;;;;8.07;0.90;;;2.10;93.30;;;;;;4797691;29;20042;-81
2021/01/14 09:26:38;;;;;;;4.37;0.60;;;2.20;93.30;;;;;;4766115;29;20050;-81
2021/01/14 09:29:07;;;;;;;3.97;0.80;;;2.20;93.40;;;;;;4781998;29;20069;-80
2021/01/14 09:31:34;;;;;;;7.10;1.00;;;2.30;93.40;;;;;;4781130;29;20062;-81
2021/01/14 09:34:02;;;;;;;4.03;0.90;;;2.40;93.30;;;;;;4814846;29;20045;-80
2021/01/14 09:36:30;;;;;;;12.73;1.30;;;2.40;93.30;;;;;;4785960;29;20054;-82
2021/01/14 09:38:58;;;;;;;6.50;1.30;;;2.40;93.00;;;;;;4786744;29;20043;-81
2021/01/14 09:41:34;;;;;;;7.90;1.20;;;2.40;92.70;;;;;;4781586;29;20066;-82
2021/01/14 09:44:13;;;;;;;9.10;1.30;;;2.50;92.70;;;;;;4799892;29;20880;-83
2021/01/14 09:46:47;;;;;;;9.23;3.33;;;2.40;92.30;;;;;;4783504;29;20491;-82
2021/01/14 09:49:15;;;;;;;9.60;2.00;;;2.50;92.20;;;;;;4772104;29;20047;-82
2021/01/14 09:51:43;;;;;;;9.53;1.67;;;2.50;92.40;;;;;;4800214;29;20043;-82
2021/01/14 09:54:11;;;;;;;4.60;1.13;;;2.40;91.80;;;;;;4756688;29;20597;-81
2021/01/14 09:56:47;;;;;;;9.57;1.30;;;2.40;91.90;;;;;;4800289;29;20499;-82
2021/01/14 09:59:32;;;;;;;6.77;1.23;;;2.40;92.10;;;;;;4786262;29;20062;-83
2021/01/14 10:02:22;;;;;;;5.83;0.90;;;2.50;92.10;;;;;;4769843;29;20047;-81
2021/01/14 10:04:59;;;;;;;7.87;1.60;;;2.60;92.50;;;;;;4815270;29;20050;-81
2021/01/14 10:07:26;;;;;;;7.13;1.13;;;2.80;92.90;;;;;;4784846;29;20053;-81
2021/01/14 10:09:54;;;;;;;6.77;1.30;;;3.10;92.80;;;;;;4785273;29;20054;-81
2021/01/14 10:12:21;;;;;;;8.37;1.37;;;3.30;93.00;;;;;;4785351;29;20058;-81
2021/01/14 10:14:48;;;;;;;4.73;1.00;;;3.50;92.70;;;;;;4785633;29;20407;-80
2021/01/14 10:17:16;;;;;;;6.63;1.33;;;3.60;92.10;;;;;;4772786;29;20422;-82
2021/01/14 10:19:48;;;;;;;8.25;1.30;;;3.70;92.50;;;;;;4785154;29;20051;-81
2021/01/14 10:22:15;;;;;;;8.27;1.20;;;3.90;91.70;;;;;;4798905;29;20050;-81
2021/01/14 10:24:41;;;;;;;11.03;1.37;;;4.00;91.40;;;;;;4770690;29;20038;-83
2021/01/14 10:27:21;;;;;;;8.05;1.50;;;4.10;90.80;;;;;;4782718;29;20042;-82
2021/01/14 10:29:48;;;;;;;8.38;1.52;;;4.10;87.40;;;;;;4785509;29;20043;-82
2021/01/14 10:32:17;;;;;;;6.93;1.73;;;4.00;88.40;;;;;;4783097;29;20407;-81
2021/01/14 10:34:52;;;;;;;9.63;1.45;;;3.90;87.80;;;;;;4797974;29;20043;-82
2021/01/14 10:37:18;;;;;;;11.55;1.65;;;3.80;87.10;;;;;;4783462;29;20467;-81
2021/01/14 10:39:45;;;;;;;13.82;1.38;;;3.70;87.80;;;;;;4770039;29;20039;-82
2021/01/14 10:42:34;;;;;;;5.32;0.77;;;3.80;89.00;;;;;;4768477;29;20039;-82
2021/01/14 10:45:22;;;;;;;9.90;1.30;;;3.90;89.90;;;;;;4796812;29;20070;-82
2021/01/14 10:47:49;;;;;;;7.20;1.15;;;4.10;88.90;;;;;;4796614;29;20051;-82
2021/01/14 10:50:25;;;;;;;8.40;1.63;;;4.30;88.70;;;;;;4779548;29;20039;-81
2021/01/14 10:53:03;;;;;;;8.30;1.98;;;4.30;87.10;;;;;;4783823;29;20505;-82
2021/01/14 10:55:33;;;;;;;7.32;2.20;;;4.20;85.90;;;;;;4784201;29;20042;-80
2021/01/14 10:58:02;;;;;;;7.50;1.77;;;4.10;85.80;;;;;;4780487;29;20577;-82
2021/01/14 11:00:38;;;;;;;9.32;2.67;;;3.90;85.80;;;;;;4756668;29;20038;-81
2021/01/14 11:03:10;;;;;;;7.75;2.58;;;3.80;86.40;;;;;;4799390;29;20050;-82
2021/01/14 11:05:48;;;;;;;9.65;2.60;;;3.60;85.70;;;;;;4783071;29;20053;-81
2021/01/14 11:08:15;;;;;;;11.77;3.13;;;3.50;85.60;;;;;;4783696;29;20039;-81
2021/01/14 11:10:43;;;;;;;7.53;1.80;;;3.40;86.80;;;;;;4797849;29;20502;-82
2021/01/14 11:13:12;;;;;;;11.03;1.50;;;3.30;86.60;;;;;;4782209;29;20093;-82
2021/01/14 11:15:39;;;;;;;8.63;1.80;;;3.20;86.20;;;;;;4780929;29;20039;-81
2021/01/14 11:18:07;;;;;;;6.53;1.40;;;3.10;86.30;;;;;;4799198;29;20138;-82
2021/01/14 11:20:34;;;;;;;12.87;2.13;;;3.10;87.00;;;;;;4771896;29;20050;-82
2021/01/14 11:23:00;;;;;;;8.27;2.00;;;3.00;87.40;;;;;;4783564;29;20027;-81
2021/01/14 11:25:32;;;;;;;9.50;2.30;;;3.00;87.40;;;;;;4783227;29;20043;-82
2021/01/14 11:27:59;;;;;;;8.90;1.77;;;3.00;87.80;;;;;;4798877;29;20113;-83
2021/01/14 11:30:29;;;;;;;8.33;1.80;;;2.90;87.70;;;;;;4778485;29;20064;-82
2021/01/14 11:32:55;;;;;;;7.53;2.67;;;2.90;87.80;;;;;;4760676;29;20047;-82
2021/01/14 11:35:22;;;;;;;6.17;1.77;;;2.70;87.70;;;;;;4783139;29;20043;-83
2021/01/14 11:37:50;;;;;;;7.73;1.80;;;2.70;88.10;;;;;;4759977;29;20043;-82
2021/01/14 11:40:17;;;;;;;4.40;1.50;;;2.60;89.10;;;;;;4782974;29;20039;-82
2021/01/14 11:42:43;;;;;;;16.03;3.37;;;2.60;88.80;;;;;;4778461;29;20055;-83
2021/01/14 11:45:10;;;;;;;14.40;3.20;;;2.60;89.10;;;;;;4798640;29;20051;-82
2021/01/14 11:47:37;;;;;;;6.33;1.80;;;2.60;89.40;;;;;;4768225;29;20054;-82
2021/01/14 11:50:04;;;;;;;11.43;2.60;;;2.60;89.40;;;;;;4785066;29;20059;-84
2021/01/14 11:52:32;;;;;;;5.53;1.70;;;2.60;89.70;;;;;;4758765;29;20049;-82
2021/01/14 11:54:58;;;;;;;6.10;1.50;;;2.60;90.00;;;;;;4802031;29;20043;-82
2021/01/14 11:57:29;;;;;;;7.73;2.60;;;2.70;90.10;;;;;;4790947;29;20067;-82
2021/01/14 11:59:56;;;;;;;8.57;2.23;;;2.70;89.60;;;;;;4797296;29;20050;-82
2021/01/14 12:02:22;;;;;;;9.23;2.07;;;2.70;89.90;;;;;;4796974;29;20046;-82
2021/01/14 12:04:52;;;;;;;5.37;1.77;;;2.70;90.00;;;;;;4798226;29;20062;-82
2021/01/14 12:07:18;;;;;;;6.83;1.70;;;2.70;90.10;;;;;;4767507;29;20046;-81
2021/01/14 12:09:45;;;;;;;5.63;1.43;;;2.80;90.30;;;;;;4767234;29;20043;-81
2021/01/14 12:12:11;;;;;;;10.33;2.50;;;2.80;90.40;;;;;;4796869;29;20062;-82
2021/01/14 12:14:38;;;;;;;5.87;2.20;;;2.90;90.20;;;;;;4782748;29;20045;-82
2021/01/14 12:17:04;;;;;;;5.80;1.43;;;2.90;90.20;;;;;;4768132;29;20518;-82
2021/01/14 12:19:32;;;;;;;12.10;2.50;;;2.90;90.30;;;;;;4783007;29;20047;-83
2021/01/14 12:22:03;;;;;;;10.60;2.20;;;2.90;90.00;;;;;;4794628;29;20059;-82
2021/01/14 12:24:30;;;;;;;8.40;2.00;;;3.00;90.00;;;;;;4785570;29;20118;-81
2021/01/14 12:26:57;;;;;;;8.23;2.80;;;3.10;89.50;;;;;;4795769;29;20525;-82
2021/01/14 12:29:24;;;;;;;5.20;1.90;;;3.20;88.80;;;;;;4782104;29;20043;-82
2021/01/14 12:31:52;;;;;;;4.53;1.67;;;3.30;88.20;;;;;;4769343;29;20059;-82
2021/01/14 12:34:21;;;;;;;4.33;1.50;;;3.30;86.70;;;;;;4769006;29;20035;-81
2021/01/14 12:36:48;;;;;;;4.00;1.20;;;3.30;86.20;;;;;;4767154;29;20049;-81
2021/01/14 12:39:15;;;;;;;9.13;2.47;;;3.30;86.90;;;;;;4768427;29;20487;-81
2021/01/14 12:41:42;;;;;;;5.73;1.80;;;3.30;86.70;;;;;;4782086;29;20404;-81
2021/01/14 12:44:08;;;;;;;6.63;2.40;;;3.30;87.20;;;;;;4797844;29;20047;-81
2021/01/14 12:46:41;;;;;;;6.90;1.93;;;3.30;86.50;;;;;;4760111;30;20054;-81
2021/01/14 12:49:08;;;;;;;5.03;2.10;;;3.30;86.60;;;;;;4790026;29;20817;-82
2021/01/14 12:51:35;;;;;;;5.73;1.60;;;3.30;86.20;;;;;;4784604;29;20419;-82
2021/01/14 12:54:02;;;;;;;3.97;1.73;;;3.20;86.00;;;;;;4782735;29;20054;-81
2021/01/14 12:56:29;;;;;;;4.97;1.63;;;3.20;86.00;;;;;;4776688;29;20063;-81
2021/01/14 12:58:55;;;;;;;5.40;1.63;;;3.20;85.70;;;;;;4781860;29;20055;-81
2021/01/14 13:01:35;;;;;;;3.83;1.40;;;3.20;86.20;;;;;;4796944;29;20402;-81
2021/01/14 13:04:04;;;;;;;3.93;1.30;;;3.20;85.80;;;;;;4767542;29;20157;-81
2021/01/14 13:06:38;;;;;;;4.30;1.63;;;3.20;85.50;;;;;;4783805;29;20057;-81
2021/01/14 13:09:07;;;;;;;5.87;1.47;;;3.10;84.40;;;;;;4782840;29;20047;-81
2021/01/14 13:11:34;;;;;;;3.87;1.43;;;3.20;84.80;;;;;;4782130;29;20043;-81
2021/01/14 13:14:01;;;;;;;5.27;2.27;;;3.10;85.10;;;;;;4782811;29;20042;-81
2021/01/14 13:16:33;;;;;;;4.73;1.90;;;3.20;84.50;;;;;;4796467;29;20061;-81
2021/01/14 13:19:06;;;;;;;4.10;1.70;;;3.20;84.00;;;;;;4782032;29;20099;-80